Atasoylar — TCGK — position and weather

sailwx.info

Track history (hours):
 
Tides and Currents Weather Stations Pressure Air Temp Water Temp Dewpoint Dewpoint Depression Visibility Wind Speed Wind Dir Waves Ship Positions

Atasoylar

Last reported at 2017-Dec-16 12:58 UTC. Time now 2017-Dec-16 13:13 UTC.
Position N 46°30' E 030°44'.

Length 99 m; draft 3.8 m.

Type: Cargo ship. MMSI: 271000269.

Date/timePositionNaut miles runAvg speedWind from/ knotsBaromVisibWave heightAir tempDewpointWater temp
2017-Dec-16 12:58N 46°30' E 030°44'0 0.0
2017-Dec-16 12:25N 46°30' E 030°44'0 0.0
2017-Dec-16 11:58N 46°30' E 030°44'0 0.0
2017-Dec-16 11:28N 46°30' E 030°44'0 0.0
2017-Dec-16 10:52N 46°30' E 030°44'0 0.0
2017-Dec-16 10:28N 46°30' E 030°44'0 0.0
2017-Dec-16 09:55N 46°30' E 030°44'0 0.0
2017-Dec-16 09:22N 46°30' E 030°44'0 0.0
2017-Dec-16 08:52N 46°30' E 030°44'0 0.0
2017-Dec-16 08:25N 46°30' E 030°44'0 0.0
2017-Dec-16 07:58N 46°30' E 030°44'0 0.0
2017-Dec-16 07:10N 46°30' E 030°44'0 0.0
2017-Dec-16 06:52N 46°30' E 030°44'0 0.0
2017-Dec-16 06:28N 46°30' E 030°44'0 0.0
2017-Dec-16 05:43N 46°30' E 030°44'0 0.0
2017-Dec-16 05:28N 46°30' E 030°44'0 0.0
2017-Dec-16 04:58N 46°30' E 030°44'0 0.0
2017-Dec-16 04:04N 46°30' E 030°44'0 0.0
2017-Dec-16 03:52N 46°30' E 030°44'0 0.0
2017-Dec-16 03:28N 46°30' E 030°44'0 0.0
2017-Dec-16 02:52N 46°30' E 030°44'0 0.0
2017-Dec-16 02:28N 46°30' E 030°44'0 0.0
2017-Dec-16 01:58N 46°30' E 030°44'0 0.0
2017-Dec-16 01:22N 46°30' E 030°44'0 0.0
2017-Dec-16 00:55N 46°30' E 030°44'0 0.0
2017-Dec-16 00:22N 46°30' E 030°44'0 0.0
2017-Dec-15 23:58N 46°30' E 030°44'0 0.0
2017-Dec-15 23:28N 46°30' E 030°44'0 0.0
2017-Dec-15 22:49N 46°30' E 030°44'0 0.0
2017-Dec-15 22:28N 46°30' E 030°44'0 0.0
2017-Dec-15 22:00N 46°30' E 030°44'0 0.0
2017-Dec-15 21:30N 46°30' E 030°44'0 0.0
2017-Dec-15 21:00N 46°30' E 030°44'1 2.0
2017-Dec-15 20:30N 46°30' E 030°45'3 6.2
2017-Dec-15 20:00N 46°29' E 030°49'5 9.5
2017-Dec-15 19:30N 46°25' E 030°52'711.7
2017-Dec-15 18:55N 46°18' E 030°55'1210.2
2017-Dec-15 17:46N 46°07' E 030°49'311.2
2017-Dec-15 17:30N 46°04' E 030°47'611.6
2017-Dec-15 16:59N 45°58' E 030°47'1911.6
2017-Dec-15 15:22N 45°40' E 030°42'411.5
2017-Dec-15 15:00N 45°36' E 030°41'611.5
2017-Dec-15 14:30N 45°30' E 030°39'611.5
2017-Dec-15 14:00N 45°25' E 030°37'611.5
2017-Dec-15 13:30N 45°19' E 030°36'611.5
2017-Dec-15 13:00N 45°13' E 030°34'611.7
2017-Dec-15 12:30N 45°08' E 030°33'611.7
2017-Dec-15 11:58N 45°01' E 030°31'1711.5
2017-Dec-15 10:31N 44°45' E 030°27'011.4
2017-Dec-15 10:30N 44°45' E 030°27'611.3
2017-Dec-15 10:00N 44°39' E 030°25'611.3
2017-Dec-15 09:29N 44°33' E 030°24'22111.0
2017-Dec-14 13:27N 41°01' E 028°60'4 8.5
2017-Dec-14 12:59N 40°57' E 029°00'2 5.1
2017-Dec-14 12:30N 40°56' E 029°03'4 8.7
2017-Dec-14 12:00N 40°54' E 029°08'2 3.8
2017-Dec-14 11:27N 40°53' E 029°10'0 0.0
2017-Dec-14 10:51N 40°53' E 029°10'0 0.0
2017-Dec-14 10:27N 40°53' E 029°10'0 0.0
2017-Dec-14 09:45N 40°53' E 029°10'0 0.0
2017-Dec-14 09:27N 40°53' E 029°10'0 0.1
2017-Dec-14 08:58N 40°53' E 029°10'1 2.0
2017-Dec-14 08:30N 40°52' E 029°11'5 9.9
2017-Dec-14 08:00N 40°50' E 029°05'611.3
2017-Dec-14 07:29N 40°50' E 028°57'16110.2
2017-Dec-13 15:42N 40°07' E 025°33'311.0
2017-Dec-13 15:27N 40°09' E 025°30'510.7
2017-Dec-13 15:00N 40°11' E 025°25'611.2
2017-Dec-13 14:31N 40°14' E 025°18'611.3
2017-Dec-13 14:01N 40°16' E 025°12'611.2
2017-Dec-13 13:30N 40°19' E 025°05'510.8
2017-Dec-13 13:00N 40°22' E 024°59'510.5
2017-Dec-13 12:30N 40°25' E 024°53'510.8
2017-Dec-13 12:01N 40°27' E 024°47'510.6
2017-Dec-13 11:30N 40°29' E 024°41'510.8
2017-Dec-13 11:00N 40°32' E 024°35'511.0
2017-Dec-13 10:31N 40°35' E 024°29'510.2
2017-Dec-13 10:00N 40°40' E 024°26'510.9
2017-Dec-13 09:31N 40°45' E 024°26'611.2
2017-Dec-13 09:01N 40°50' E 024°28'510.8
2017-Dec-13 08:30N 40°56' E 024°29'1 1.9
2017-Dec-13 07:53N 40°57' E 024°29'0 0.0
2017-Dec-13 07:29N 40°57' E 024°29'0 0.0
2017-Dec-13 06:56N 40°57' E 024°29'0 0.0
2017-Dec-13 06:26N 40°57' E 024°29'0 0.0
2017-Dec-13 05:56N 40°57' E 024°29'0 0.0
2017-Dec-13 05:26N 40°57' E 024°29'0 0.0
2017-Dec-13 04:56N 40°57' E 024°29'0 0.0
2017-Dec-13 04:29N 40°57' E 024°29'0 0.0
2017-Dec-13 03:59N 40°57' E 024°29'0 0.0
2017-Dec-13 03:29N 40°57' E 024°29'0 0.0
2017-Dec-13 02:59N 40°57' E 024°29'0 0.0
2017-Dec-13 02:26N 40°57' E 024°29'0 0.0
2017-Dec-13 01:56N 40°57' E 024°29'0 0.0
2017-Dec-13 01:29N 40°57' E 024°29'0 0.0
2017-Dec-13 00:59N 40°57' E 024°29'0 0.0
2017-Dec-13 00:26N 40°57' E 024°29'0 0.0
2017-Dec-12 23:56N 40°57' E 024°29'0 0.0
2017-Dec-12 23:26N 40°57' E 024°29'0 0.0
2017-Dec-12 22:59N 40°57' E 024°29'0 0.0
2017-Dec-12 22:29N 40°57' E 024°29'0 0.0
2017-Dec-12 21:56N 40°57' E 024°29'0 0.0
2017-Dec-12 21:29N 40°57' E 024°29'0 0.0
2017-Dec-12 20:59N 40°57' E 024°29'0 0.0
2017-Dec-12 20:29N 40°57' E 024°29'0 0.0
2017-Dec-12 19:59N 40°57' E 024°29'0 0.0
2017-Dec-12 19:29N 40°57' E 024°29'0 0.0
2017-Dec-12 18:56N 40°57' E 024°29'0 0.0
2017-Dec-12 18:29N 40°57' E 024°29'0 0.0
2017-Dec-12 17:56N 40°57' E 024°29'0 0.0
2017-Dec-12 17:26N 40°57' E 024°29'0 0.0
2017-Dec-12 16:59N 40°57' E 024°29'0 0.0
2017-Dec-12 16:26N 40°57' E 024°29'0 0.0
2017-Dec-12 15:59N 40°57' E 024°29'0 0.0
2017-Dec-12 15:29N 40°57' E 024°29'0 0.0
2017-Dec-12 14:59N 40°57' E 024°29'0 0.0
2017-Dec-12 14:29N 40°57' E 024°29'0 0.0
2017-Dec-12 13:53N 40°57' E 024°29'0 0.0
2017-Dec-12 13:29N 40°57' E 024°29'0 0.0
2017-Dec-12 12:59N 40°57' E 024°29'0 0.0
2017-Dec-12 12:20N 40°57' E 024°29'0 0.0
2017-Dec-12 11:53N 40°57' E 024°29'0 0.0
2017-Dec-12 11:29N 40°57' E 024°29'0 0.0
2017-Dec-12 10:53N 40°57' E 024°29'0 0.0
2017-Dec-12 10:29N 40°57' E 024°29'0 0.0
2017-Dec-12 09:59N 40°57' E 024°29'0 0.0
2017-Dec-12 09:29N 40°57' E 024°29'0 0.0
2017-Dec-12 08:56N 40°57' E 024°29'0 0.0
2017-Dec-12 08:29N 40°57' E 024°29'0 0.0
2017-Dec-12 08:00N 40°57' E 024°29'1 2.1
2017-Dec-12 07:30N 40°56' E 024°29'1 0.8
2017-Dec-12 06:54N 40°55' E 024°29'0 0.1
2017-Dec-12 06:30N 40°55' E 024°29'0 0.0
2017-Dec-12 06:00N 40°55' E 024°29'0 0.0
2017-Dec-12 05:30N 40°55' E 024°29'0 0.0
2017-Dec-12 05:00N 40°55' E 024°29'0 0.1
2017-Dec-12 04:30N 40°55' E 024°29'0 0.0
2017-Dec-12 04:00N 40°55' E 024°29'0 0.0
2017-Dec-12 03:30N 40°55' E 024°29'0 0.1
2017-Dec-12 03:00N 40°55' E 024°29'0 0.0
2017-Dec-12 02:30N 40°55' E 024°29'0 0.0
2017-Dec-12 02:00N 40°55' E 024°29'0 0.0
2017-Dec-12 01:30N 40°55' E 024°29'0 0.0
2017-Dec-12 01:00N 40°55' E 024°29'0 0.1
2017-Dec-12 00:30N 40°55' E 024°29'0 0.0
2017-Dec-12 00:00N 40°55' E 024°29'0 0.1
2017-Dec-11 23:30N 40°55' E 024°29'0 0.1
2017-Dec-11 23:00N 40°55' E 024°29'0 0.1
2017-Dec-11 22:30N 40°55' E 024°29'0 0.0
2017-Dec-11 22:00N 40°55' E 024°29'0 0.0
2017-Dec-11 21:30N 40°55' E 024°29'0 0.0
2017-Dec-11 21:00N 40°55' E 024°29'0 0.1
2017-Dec-11 20:30N 40°55' E 024°29'0 0.0
2017-Dec-11 20:00N 40°55' E 024°29'0 0.0
2017-Dec-11 19:30N 40°55' E 024°29'0 0.1
2017-Dec-11 19:00N 40°55' E 024°29'0 0.0
2017-Dec-11 18:30N 40°55' E 024°29'0 0.0
2017-Dec-11 18:00N 40°55' E 024°29'0 0.0
2017-Dec-11 17:30N 40°55' E 024°29'0 0.1
2017-Dec-11 17:00N 40°55' E 024°29'0 0.0
2017-Dec-11 16:30N 40°55' E 024°29'0 0.2
2017-Dec-11 16:00N 40°55' E 024°29'0 0.0
2017-Dec-11 15:30N 40°55' E 024°29'0 0.0
2017-Dec-11 15:00N 40°55' E 024°29'0 0.0
2017-Dec-11 14:27N 40°55' E 024°29'0 0.0
2017-Dec-11 14:00N 40°55' E 024°29'0 0.0
2017-Dec-11 13:30N 40°55' E 024°29'0 0.0
2017-Dec-11 13:00N 40°55' E 024°29'0 0.1
2017-Dec-11 12:30N 40°55' E 024°29'0 0.0
2017-Dec-11 12:00N 40°55' E 024°29'0 0.0
2017-Dec-11 11:30N 40°55' E 024°29'0 0.0
2017-Dec-11 11:00N 40°55' E 024°29'0 0.0
2017-Dec-11 10:30N 40°55' E 024°29'0 0.0
2017-Dec-11 10:00N 40°55' E 024°29'0 0.0
2017-Dec-11 09:30N 40°55' E 024°29'0 0.0
2017-Dec-11 09:00N 40°55' E 024°29'0 0.0
2017-Dec-11 08:30N 40°55' E 024°29'0 0.0
2017-Dec-11 08:00N 40°55' E 024°29'0 0.0
2017-Dec-11 07:30N 40°55' E 024°29'0 0.0
2017-Dec-11 07:00N 40°55' E 024°29'0 0.1
2017-Dec-11 06:30N 40°55' E 024°29'0 0.0
2017-Dec-11 06:00N 40°55' E 024°29'0 0.0
2017-Dec-11 05:30N 40°55' E 024°29'0 0.0
2017-Dec-11 05:00N 40°55' E 024°29'0 0.0
2017-Dec-11 04:30N 40°55' E 024°29'0 0.0
2017-Dec-11 04:00N 40°55' E 024°29'0 0.0
2017-Dec-11 03:30N 40°55' E 024°29'0 0.0
2017-Dec-11 03:00N 40°55' E 024°29'0 0.0
2017-Dec-11 02:30N 40°55' E 024°29'0 0.0
2017-Dec-11 02:00N 40°55' E 024°29'0 0.0
2017-Dec-11 01:30N 40°55' E 024°29'0 0.1
2017-Dec-11 01:00N 40°55' E 024°29'0 0.0
2017-Dec-11 00:30N 40°55' E 024°29'0 0.1
2017-Dec-11 00:00N 40°55' E 024°29'0 0.0
2017-Dec-10 23:30N 40°55' E 024°29'0 0.1
2017-Dec-10 23:00N 40°55' E 024°29'0 0.0
2017-Dec-10 22:30N 40°55' E 024°29'0 0.0
2017-Dec-10 22:00N 40°55' E 024°29'0 0.0
2017-Dec-10 21:30N 40°55' E 024°29'0 0.0
2017-Dec-10 21:00N 40°55' E 024°29'0 0.1
2017-Dec-10 20:30N 40°55' E 024°29'0 0.0
2017-Dec-10 20:00N 40°55' E 024°29'0 0.0
2017-Dec-10 19:30N 40°55' E 024°29'0 0.1
2017-Dec-10 19:00N 40°55' E 024°29'0 0.1
2017-Dec-10 18:30N 40°55' E 024°29'0 0.0
2017-Dec-10 18:00N 40°55' E 024°29'0 0.0
2017-Dec-10 17:30N 40°55' E 024°29'0 0.1
2017-Dec-10 17:00N 40°55' E 024°29'0 0.0
2017-Dec-10 16:30N 40°55' E 024°29'0 0.0
2017-Dec-10 16:00N 40°55' E 024°29'0 0.0
2017-Dec-10 15:30N 40°55' E 024°29'0 0.0
2017-Dec-10 15:00N 40°55' E 024°29'0 0.0
2017-Dec-10 14:27N 40°55' E 024°29'0 0.0
2017-Dec-10 13:57N 40°55' E 024°29'0 0.0
2017-Dec-10 13:30N 40°55' E 024°29'0 0.0
2017-Dec-10 12:57N 40°55' E 024°29'0 0.0
2017-Dec-10 12:30N 40°55' E 024°29'0 0.0
2017-Dec-10 12:00N 40°55' E 024°29'0 0.0
2017-Dec-10 11:30N 40°55' E 024°29'0 0.0
2017-Dec-10 11:00N 40°55' E 024°29'0 0.0
2017-Dec-10 10:30N 40°55' E 024°29'0 0.0
2017-Dec-10 10:00N 40°55' E 024°29'0 0.0
2017-Dec-10 09:30N 40°55' E 024°29'0 0.0
2017-Dec-10 09:00N 40°55' E 024°29'0 0.0
2017-Dec-10 08:30N 40°55' E 024°29'0 0.0
2017-Dec-10 08:00N 40°55' E 024°29'0 0.1
2017-Dec-10 07:30N 40°55' E 024°29'0 0.0
2017-Dec-10 06:58N 40°55' E 024°29'0 0.0
2017-Dec-10 06:28N 40°55' E 024°29'0 0.0
2017-Dec-10 05:58N 40°55' E 024°29'0 0.1
2017-Dec-10 05:28N 40°55' E 024°29'0 0.0
2017-Dec-10 04:55N 40°55' E 024°29'0 0.1
2017-Dec-10 04:30N 40°55' E 024°29'0 0.1
2017-Dec-10 03:58N 40°55' E 024°29'0 0.0
2017-Dec-10 03:28N 40°55' E 024°29'0 0.1
2017-Dec-10 02:55N 40°55' E 024°29'0 0.0
2017-Dec-10 02:28N 40°55' E 024°29'0 0.1
2017-Dec-10 01:58N 40°55' E 024°29'0 0.0
2017-Dec-10 01:25N 40°55' E 024°29'0 0.0
2017-Dec-10 00:58N 40°55' E 024°29'0 0.0
2017-Dec-10 00:28N 40°55' E 024°29'0 0.0
2017-Dec-09 23:55N 40°55' E 024°29'0 0.0
2017-Dec-09 23:28N 40°55' E 024°29'0 0.0
2017-Dec-09 22:58N 40°55' E 024°29'0 0.0
2017-Dec-09 22:28N 40°55' E 024°29'0 0.1
2017-Dec-09 21:58N 40°55' E 024°29'0 0.0
2017-Dec-09 21:25N 40°55' E 024°29'0 0.1
2017-Dec-09 20:58N 40°55' E 024°29'0 0.0
2017-Dec-09 20:25N 40°55' E 024°29'0 0.1
2017-Dec-09 19:58N 40°55' E 024°29'0 0.0
2017-Dec-09 19:25N 40°55' E 024°29'0 0.0
2017-Dec-09 18:55N 40°55' E 024°29'0 0.0
2017-Dec-09 18:25N 40°55' E 024°29'0 0.0
2017-Dec-09 17:55N 40°55' E 024°29'0 0.0
2017-Dec-09 17:25N 40°55' E 024°29'0 0.0
2017-Dec-09 16:58N 40°55' E 024°29'0 0.0
2017-Dec-09 16:25N 40°55' E 024°29'0 0.1
2017-Dec-09 15:58N 40°55' E 024°29'0 0.2
2017-Dec-09 15:28N 40°55' E 024°29'0 0.1
2017-Dec-09 14:58N 40°55' E 024°29'0 0.1
2017-Dec-09 14:28N 40°55' E 024°29'0 0.0
2017-Dec-09 13:58N 40°55' E 024°29'0 0.0
2017-Dec-09 13:28N 40°55' E 024°29'0 0.1
2017-Dec-09 12:58N 40°55' E 024°29'0 0.0
2017-Dec-09 12:28N 40°55' E 024°29'0 0.0
2017-Dec-09 11:58N 40°55' E 024°29'0 0.0
2017-Dec-09 11:28N 40°55' E 024°29'0 0.0
2017-Dec-09 10:58N 40°55' E 024°29'0 0.1
2017-Dec-09 10:28N 40°55' E 024°29'0 0.0
2017-Dec-09 09:58N 40°55' E 024°29'0 0.0
2017-Dec-09 09:25N 40°55' E 024°29'0 0.2
2017-Dec-09 08:58N 40°55' E 024°29'0 0.1
2017-Dec-09 08:28N 40°55' E 024°29'0 0.0
2017-Dec-09 07:58N 40°55' E 024°29'0 0.0
2017-Dec-09 07:28N 40°55' E 024°29'0 0.0
2017-Dec-09 06:55N 40°55' E 024°29'0 0.0
2017-Dec-09 06:28N 40°55' E 024°29'0 0.0
2017-Dec-09 05:58N 40°55' E 024°29'0 0.0
2017-Dec-09 05:28N 40°55' E 024°29'0 0.1
2017-Dec-09 04:55N 40°55' E 024°29'0 0.1
2017-Dec-09 04:28N 40°55' E 024°29'0 0.1
2017-Dec-09 03:58N 40°55' E 024°29'0 0.0
2017-Dec-09 03:28N 40°55' E 024°29'0 0.0
2017-Dec-09 02:58N 40°55' E 024°29'0 0.1
2017-Dec-09 02:28N 40°55' E 024°29'0 0.0
2017-Dec-09 01:58N 40°55' E 024°29'0 0.0
2017-Dec-09 01:28N 40°55' E 024°29'0 0.0
2017-Dec-09 00:58N 40°55' E 024°29'0 0.0
2017-Dec-09 00:28N 40°55' E 024°29'0 0.0
2017-Dec-08 23:55N 40°55' E 024°29'0 0.0
2017-Dec-08 23:25N 40°55' E 024°29'0 0.0
2017-Dec-08 22:58N 40°55' E 024°29'0 0.0
2017-Dec-08 22:28N 40°55' E 024°29'0 0.0
2017-Dec-08 21:55N 40°55' E 024°29'0 0.0
2017-Dec-08 21:25N 40°55' E 024°29'0 0.0
2017-Dec-08 20:55N 40°55' E 024°29'0 0.0
2017-Dec-08 20:25N 40°55' E 024°29'0 0.0
2017-Dec-08 19:55N 40°55' E 024°29'0 0.0
2017-Dec-08 19:28N 40°55' E 024°29'0 0.0
2017-Dec-08 18:58N 40°55' E 024°29'0 0.0
2017-Dec-08 18:25N 40°55' E 024°29'0 0.1
2017-Dec-08 17:55N 40°55' E 024°29'0 0.0
2017-Dec-08 17:25N 40°55' E 024°29'0 0.0
2017-Dec-08 16:55N 40°55' E 024°29'0 0.0
2017-Dec-08 16:28N 40°55' E 024°29'0 0.1
2017-Dec-08 15:55N 40°55' E 024°29'0 0.1
2017-Dec-08 15:28N 40°55' E 024°29'0 0.0
2017-Dec-08 14:58N 40°55' E 024°29'0 0.1
2017-Dec-08 14:28N 40°55' E 024°29'0 0.0
2017-Dec-08 13:52N 40°55' E 024°29'0 0.0
2017-Dec-08 13:22N 40°55' E 024°29'0 0.0
2017-Dec-08 12:58N 40°55' E 024°29'0 0.0
2017-Dec-08 12:28N 40°55' E 024°29'0 0.0
2017-Dec-08 11:55N 40°55' E 024°29'0 0.1
2017-Dec-08 11:28N 40°55' E 024°29'0 0.0
2017-Dec-08 10:58N 40°55' E 024°29'0 0.0
2017-Dec-08 10:28N 40°55' E 024°29'0 0.1
2017-Dec-08 09:58N 40°55' E 024°29'0 0.1
2017-Dec-08 09:28N 40°55' E 024°29'0 0.1
2017-Dec-08 08:58N 40°55' E 024°29'0 0.0
2017-Dec-08 08:28N 40°55' E 024°29'0 0.0
2017-Dec-08 07:58N 40°55' E 024°29'0 0.0
2017-Dec-08 07:28N 40°55' E 024°29'0 0.1
2017-Dec-08 06:58N 40°55' E 024°29'0 0.0
2017-Dec-08 06:28N 40°55' E 024°29'0 0.0
2017-Dec-08 05:58N 40°55' E 024°29'0 0.0
2017-Dec-08 05:28N 40°55' E 024°29'0 0.0
2017-Dec-08 04:58N 40°55' E 024°29'0 0.0
2017-Dec-08 04:28N 40°55' E 024°29'0 0.0
2017-Dec-08 03:58N 40°55' E 024°29'0 0.0
2017-Dec-08 03:28N 40°55' E 024°29'0 0.0
2017-Dec-08 02:58N 40°55' E 024°29'0 0.1
2017-Dec-08 02:28N 40°55' E 024°29'0 0.0
2017-Dec-08 01:58N 40°55' E 024°29'0 0.0
2017-Dec-08 01:28N 40°55' E 024°29'0 0.0
2017-Dec-08 00:58N 40°55' E 024°29'0 0.1
2017-Dec-08 00:28N 40°55' E 024°29'0 0.0
2017-Dec-07 23:58N 40°55' E 024°29'0 0.0
2017-Dec-07 23:28N 40°55' E 024°29'0 0.0
2017-Dec-07 22:58N 40°55' E 024°29'0 0.0
2017-Dec-07 22:25N 40°55' E 024°29'0 0.0
2017-Dec-07 21:58N 40°55' E 024°29'0 0.0
2017-Dec-07 21:28N 40°55' E 024°29'0 0.0
2017-Dec-07 20:58N 40°55' E 024°29'0 0.0
2017-Dec-07 20:28N 40°55' E 024°29'0 0.0
2017-Dec-07 19:58N 40°55' E 024°29'0 0.0
2017-Dec-07 19:28N 40°55' E 024°29'0 0.0
2017-Dec-07 18:58N 40°55' E 024°29'0 0.0
2017-Dec-07 18:28N 40°55' E 024°29'0 0.0
2017-Dec-07 17:55N 40°55' E 024°29'0 0.0
2017-Dec-07 17:25N 40°55' E 024°29'0 0.0
2017-Dec-07 16:58N 40°55' E 024°29'0 0.0
2017-Dec-07 16:28N 40°55' E 024°29'0 0.0
2017-Dec-07 15:55N 40°55' E 024°29'0 0.1
2017-Dec-07 15:28N 40°55' E 024°29'0 0.0
2017-Dec-07 14:58N 40°55' E 024°29'0 0.0
2017-Dec-07 14:28N 40°55' E 024°29'0 0.0
2017-Dec-07 13:58N 40°55' E 024°29'0 0.0
2017-Dec-07 13:25N 40°55' E 024°29'0 0.0
2017-Dec-07 12:58N 40°55' E 024°29'0 0.0
2017-Dec-07 12:28N 40°55' E 024°29'0 0.0
2017-Dec-07 11:58N 40°55' E 024°29'0 0.0
2017-Dec-07 11:28N 40°55' E 024°29'0 0.0
2017-Dec-07 10:58N 40°55' E 024°29'0 0.0
2017-Dec-07 10:25N 40°55' E 024°29'0 0.0
2017-Dec-07 09:58N 40°55' E 024°29'0 0.0
2017-Dec-07 09:28N 40°55' E 024°29'0 0.0
2017-Dec-07 08:58N 40°55' E 024°29'0 0.0
2017-Dec-07 08:25N 40°55' E 024°29'0 0.0
2017-Dec-07 07:58N 40°55' E 024°29'0 0.0
2017-Dec-07 07:25N 40°55' E 024°29'0 0.1
2017-Dec-07 06:55N 40°55' E 024°29'0 0.0
2017-Dec-07 06:25N 40°55' E 024°29'0 0.0
2017-Dec-07 05:55N 40°55' E 024°29'0 0.0
2017-Dec-07 05:25N 40°55' E 024°29'0 0.0
2017-Dec-07 04:55N 40°55' E 024°29'0 0.0
2017-Dec-07 04:19N 40°55' E 024°29'0 0.0
2017-Dec-07 03:55N 40°55' E 024°29'0 0.0
2017-Dec-07 03:25N 40°55' E 024°29'0 0.0
2017-Dec-07 02:55N 40°55' E 024°29'0 0.0
2017-Dec-07 02:25N 40°55' E 024°29'0 0.0
2017-Dec-07 01:55N 40°55' E 024°29'0 0.0
2017-Dec-07 01:25N 40°55' E 024°29'0 0.0
2017-Dec-07 00:55N 40°55' E 024°29'0 0.0
2017-Dec-07 00:25N 40°55' E 024°29'0 0.1
2017-Dec-06 23:55N 40°55' E 024°29'0 0.0
2017-Dec-06 23:25N 40°55' E 024°29'0 0.0
2017-Dec-06 22:55N 40°55' E 024°29'0 0.1
2017-Dec-06 22:28N 40°55' E 024°29'0 0.0
2017-Dec-06 21:55N 40°55' E 024°29'0 0.0
2017-Dec-06 21:13N 40°55' E 024°29'0 0.0
2017-Dec-06 20:55N 40°55' E 024°29'  
Track history (hours):
 
Tides and Currents Weather Stations Pressure Air Temp Water Temp Dewpoint Dewpoint Depression Visibility Wind Speed Wind Dir Waves Ship Positions

Atasoylar

Last reported at 2017-Dec-16 12:58 UTC. Time now 2017-Dec-16 13:13 UTC.
Position N 46°30' E 030°44'.

Length 99 m; draft 3.8 m.

Type: Cargo ship. MMSI: 271000269.

Date/timePositionNaut miles runAvg speedWind from/ knotsBaromVisibWave heightAir tempDewpointWater temp
2017-Dec-16 12:58N 46°30' E 030°44'0 0.0
2017-Dec-16 12:25N 46°30' E 030°44'0 0.0
2017-Dec-16 11:58N 46°30' E 030°44'0 0.0
2017-Dec-16 11:28N 46°30' E 030°44'0 0.0
2017-Dec-16 10:52N 46°30' E 030°44'0 0.0
2017-Dec-16 10:28N 46°30' E 030°44'0 0.0
2017-Dec-16 09:55N 46°30' E 030°44'0 0.0
2017-Dec-16 09:22N 46°30' E 030°44'0 0.0
2017-Dec-16 08:52N 46°30' E 030°44'0 0.0
2017-Dec-16 08:25N 46°30' E 030°44'0 0.0
2017-Dec-16 07:58N 46°30' E 030°44'0 0.0
2017-Dec-16 07:10N 46°30' E 030°44'0 0.0
2017-Dec-16 06:52N 46°30' E 030°44'0 0.0
2017-Dec-16 06:28N 46°30' E 030°44'0 0.0
2017-Dec-16 05:43N 46°30' E 030°44'0 0.0
2017-Dec-16 05:28N 46°30' E 030°44'0 0.0
2017-Dec-16 04:58N 46°30' E 030°44'0 0.0
2017-Dec-16 04:04N 46°30' E 030°44'0 0.0
2017-Dec-16 03:52N 46°30' E 030°44'0 0.0
2017-Dec-16 03:28N 46°30' E 030°44'0 0.0
2017-Dec-16 02:52N 46°30' E 030°44'0 0.0
2017-Dec-16 02:28N 46°30' E 030°44'0 0.0
2017-Dec-16 01:58N 46°30' E 030°44'0 0.0
2017-Dec-16 01:22N 46°30' E 030°44'0 0.0
2017-Dec-16 00:55N 46°30' E 030°44'0 0.0
2017-Dec-16 00:22N 46°30' E 030°44'0 0.0
2017-Dec-15 23:58N 46°30' E 030°44'0 0.0
2017-Dec-15 23:28N 46°30' E 030°44'0 0.0
2017-Dec-15 22:49N 46°30' E 030°44'0 0.0
2017-Dec-15 22:28N 46°30' E 030°44'0 0.0
2017-Dec-15 22:00N 46°30' E 030°44'0 0.0
2017-Dec-15 21:30N 46°30' E 030°44'0 0.0
2017-Dec-15 21:00N 46°30' E 030°44'1 2.0
2017-Dec-15 20:30N 46°30' E 030°45'3 6.2
2017-Dec-15 20:00N 46°29' E 030°49'5 9.5
2017-Dec-15 19:30N 46°25' E 030°52'711.7
2017-Dec-15 18:55N 46°18' E 030°55'1210.2
2017-Dec-15 17:46N 46°07' E 030°49'311.2
2017-Dec-15 17:30N 46°04' E 030°47'611.6
2017-Dec-15 16:59N 45°58' E 030°47'1911.6
2017-Dec-15 15:22N 45°40' E 030°42'411.5
2017-Dec-15 15:00N 45°36' E 030°41'611.5
2017-Dec-15 14:30N 45°30' E 030°39'611.5
2017-Dec-15 14:00N 45°25' E 030°37'611.5
2017-Dec-15 13:30N 45°19' E 030°36'611.5
2017-Dec-15 13:00N 45°13' E 030°34'611.7
2017-Dec-15 12:30N 45°08' E 030°33'611.7
2017-Dec-15 11:58N 45°01' E 030°31'1711.5
2017-Dec-15 10:31N 44°45' E 030°27'011.4
2017-Dec-15 10:30N 44°45' E 030°27'611.3
2017-Dec-15 10:00N 44°39' E 030°25'611.3
2017-Dec-15 09:29N 44°33' E 030°24'22111.0
2017-Dec-14 13:27N 41°01' E 028°60'4 8.5
2017-Dec-14 12:59N 40°57' E 029°00'2 5.1
2017-Dec-14 12:30N 40°56' E 029°03'4 8.7
2017-Dec-14 12:00N 40°54' E 029°08'2 3.8
2017-Dec-14 11:27N 40°53' E 029°10'0 0.0
2017-Dec-14 10:51N 40°53' E 029°10'0 0.0
2017-Dec-14 10:27N 40°53' E 029°10'0 0.0
2017-Dec-14 09:45N 40°53' E 029°10'0 0.0
2017-Dec-14 09:27N 40°53' E 029°10'0 0.1
2017-Dec-14 08:58N 40°53' E 029°10'1 2.0
2017-Dec-14 08:30N 40°52' E 029°11'5 9.9
2017-Dec-14 08:00N 40°50' E 029°05'611.3
2017-Dec-14 07:29N 40°50' E 028°57'16110.2
2017-Dec-13 15:42N 40°07' E 025°33'311.0
2017-Dec-13 15:27N 40°09' E 025°30'510.7
2017-Dec-13 15:00N 40°11' E 025°25'611.2
2017-Dec-13 14:31N 40°14' E 025°18'611.3
2017-Dec-13 14:01N 40°16' E 025°12'611.2
2017-Dec-13 13:30N 40°19' E 025°05'510.8
2017-Dec-13 13:00N 40°22' E 024°59'510.5
2017-Dec-13 12:30N 40°25' E 024°53'510.8
2017-Dec-13 12:01N 40°27' E 024°47'510.6
2017-Dec-13 11:30N 40°29' E 024°41'510.8
2017-Dec-13 11:00N 40°32' E 024°35'511.0
2017-Dec-13 10:31N 40°35' E 024°29'510.2
2017-Dec-13 10:00N 40°40' E 024°26'510.9
2017-Dec-13 09:31N 40°45' E 024°26'611.2
2017-Dec-13 09:01N 40°50' E 024°28'510.8
2017-Dec-13 08:30N 40°56' E 024°29'1 1.9
2017-Dec-13 07:53N 40°57' E 024°29'0 0.0
2017-Dec-13 07:29N 40°57' E 024°29'0 0.0
2017-Dec-13 06:56N 40°57' E 024°29'0 0.0
2017-Dec-13 06:26N 40°57' E 024°29'0 0.0
2017-Dec-13 05:56N 40°57' E 024°29'0 0.0
2017-Dec-13 05:26N 40°57' E 024°29'0 0.0
2017-Dec-13 04:56N 40°57' E 024°29'0 0.0
2017-Dec-13 04:29N 40°57' E 024°29'0 0.0
2017-Dec-13 03:59N 40°57' E 024°29'0 0.0
2017-Dec-13 03:29N 40°57' E 024°29'0 0.0
2017-Dec-13 02:59N 40°57' E 024°29'0 0.0
2017-Dec-13 02:26N 40°57' E 024°29'0 0.0
2017-Dec-13 01:56N 40°57' E 024°29'0 0.0
2017-Dec-13 01:29N 40°57' E 024°29'0 0.0
2017-Dec-13 00:59N 40°57' E 024°29'0 0.0
2017-Dec-13 00:26N 40°57' E 024°29'0 0.0
2017-Dec-12 23:56N 40°57' E 024°29'0 0.0
2017-Dec-12 23:26N 40°57' E 024°29'0 0.0
2017-Dec-12 22:59N 40°57' E 024°29'0 0.0
2017-Dec-12 22:29N 40°57' E 024°29'0 0.0
2017-Dec-12 21:56N 40°57' E 024°29'0 0.0
2017-Dec-12 21:29N 40°57' E 024°29'0 0.0
2017-Dec-12 20:59N 40°57' E 024°29'0 0.0
2017-Dec-12 20:29N 40°57' E 024°29'0 0.0
2017-Dec-12 19:59N 40°57' E 024°29'0 0.0
2017-Dec-12 19:29N 40°57' E 024°29'0 0.0
2017-Dec-12 18:56N 40°57' E 024°29'0 0.0
2017-Dec-12 18:29N 40°57' E 024°29'0 0.0
2017-Dec-12 17:56N 40°57' E 024°29'0 0.0
2017-Dec-12 17:26N 40°57' E 024°29'0 0.0
2017-Dec-12 16:59N 40°57' E 024°29'0 0.0
2017-Dec-12 16:26N 40°57' E 024°29'0 0.0
2017-Dec-12 15:59N 40°57' E 024°29'0 0.0
2017-Dec-12 15:29N 40°57' E 024°29'0 0.0
2017-Dec-12 14:59N 40°57' E 024°29'0 0.0
2017-Dec-12 14:29N 40°57' E 024°29'0 0.0
2017-Dec-12 13:53N 40°57' E 024°29'0 0.0
2017-Dec-12 13:29N 40°57' E 024°29'0 0.0
2017-Dec-12 12:59N 40°57' E 024°29'0 0.0
2017-Dec-12 12:20N 40°57' E 024°29'0 0.0
2017-Dec-12 11:53N 40°57' E 024°29'0 0.0
2017-Dec-12 11:29N 40°57' E 024°29'0 0.0
2017-Dec-12 10:53N 40°57' E 024°29'0 0.0
2017-Dec-12 10:29N 40°57' E 024°29'0 0.0
2017-Dec-12 09:59N 40°57' E 024°29'0 0.0
2017-Dec-12 09:29N 40°57' E 024°29'0 0.0
2017-Dec-12 08:56N 40°57' E 024°29'0 0.0
2017-Dec-12 08:29N 40°57' E 024°29'0 0.0
2017-Dec-12 08:00N 40°57' E 024°29'1 2.1
2017-Dec-12 07:30N 40°56' E 024°29'1 0.8
2017-Dec-12 06:54N 40°55' E 024°29'0 0.1
2017-Dec-12 06:30N 40°55' E 024°29'0 0.0
2017-Dec-12 06:00N 40°55' E 024°29'0 0.0
2017-Dec-12 05:30N 40°55' E 024°29'0 0.0
2017-Dec-12 05:00N 40°55' E 024°29'0 0.1
2017-Dec-12 04:30N 40°55' E 024°29'0 0.0
2017-Dec-12 04:00N 40°55' E 024°29'0 0.0
2017-Dec-12 03:30N 40°55' E 024°29'0 0.1
2017-Dec-12 03:00N 40°55' E 024°29'0 0.0
2017-Dec-12 02:30N 40°55' E 024°29'0 0.0
2017-Dec-12 02:00N 40°55' E 024°29'0 0.0
2017-Dec-12 01:30N 40°55' E 024°29'0 0.0
2017-Dec-12 01:00N 40°55' E 024°29'0 0.1
2017-Dec-12 00:30N 40°55' E 024°29'0 0.0
2017-Dec-12 00:00N 40°55' E 024°29'0 0.1
2017-Dec-11 23:30N 40°55' E 024°29'0 0.1
2017-Dec-11 23:00N 40°55' E 024°29'0 0.1
2017-Dec-11 22:30N 40°55' E 024°29'0 0.0
2017-Dec-11 22:00N 40°55' E 024°29'0 0.0
2017-Dec-11 21:30N 40°55' E 024°29'0 0.0
2017-Dec-11 21:00N 40°55' E 024°29'0 0.1
2017-Dec-11 20:30N 40°55' E 024°29'0 0.0
2017-Dec-11 20:00N 40°55' E 024°29'0 0.0
2017-Dec-11 19:30N 40°55' E 024°29'0 0.1
2017-Dec-11 19:00N 40°55' E 024°29'0 0.0
2017-Dec-11 18:30N 40°55' E 024°29'0 0.0
2017-Dec-11 18:00N 40°55' E 024°29'0 0.0
2017-Dec-11 17:30N 40°55' E 024°29'0 0.1
2017-Dec-11 17:00N 40°55' E 024°29'0 0.0
2017-Dec-11 16:30N 40°55' E 024°29'0 0.2
2017-Dec-11 16:00N 40°55' E 024°29'0 0.0
2017-Dec-11 15:30N 40°55' E 024°29'0 0.0
2017-Dec-11 15:00N 40°55' E 024°29'0 0.0
2017-Dec-11 14:27N 40°55' E 024°29'0 0.0
2017-Dec-11 14:00N 40°55' E 024°29'0 0.0
2017-Dec-11 13:30N 40°55' E 024°29'0 0.0
2017-Dec-11 13:00N 40°55' E 024°29'0 0.1
2017-Dec-11 12:30N 40°55' E 024°29'0 0.0
2017-Dec-11 12:00N 40°55' E 024°29'0 0.0
2017-Dec-11 11:30N 40°55' E 024°29'0 0.0
2017-Dec-11 11:00N 40°55' E 024°29'0 0.0
2017-Dec-11 10:30N 40°55' E 024°29'0 0.0
2017-Dec-11 10:00N 40°55' E 024°29'0 0.0
2017-Dec-11 09:30N 40°55' E 024°29'0 0.0
2017-Dec-11 09:00N 40°55' E 024°29'0 0.0
2017-Dec-11 08:30N 40°55' E 024°29'0 0.0
2017-Dec-11 08:00N 40°55' E 024°29'0 0.0
2017-Dec-11 07:30N 40°55' E 024°29'0 0.0
2017-Dec-11 07:00N 40°55' E 024°29'0 0.1
2017-Dec-11 06:30N 40°55' E 024°29'0 0.0
2017-Dec-11 06:00N 40°55' E 024°29'0 0.0
2017-Dec-11 05:30N 40°55' E 024°29'0 0.0
2017-Dec-11 05:00N 40°55' E 024°29'0 0.0
2017-Dec-11 04:30N 40°55' E 024°29'0 0.0
2017-Dec-11 04:00N 40°55' E 024°29'0 0.0
2017-Dec-11 03:30N 40°55' E 024°29'0 0.0
2017-Dec-11 03:00N 40°55' E 024°29'0 0.0
2017-Dec-11 02:30N 40°55' E 024°29'0 0.0
2017-Dec-11 02:00N 40°55' E 024°29'0 0.0
2017-Dec-11 01:30N 40°55' E 024°29'0 0.1
2017-Dec-11 01:00N 40°55' E 024°29'0 0.0
2017-Dec-11 00:30N 40°55' E 024°29'0 0.1
2017-Dec-11 00:00N 40°55' E 024°29'0 0.0
2017-Dec-10 23:30N 40°55' E 024°29'0 0.1
2017-Dec-10 23:00N 40°55' E 024°29'0 0.0
2017-Dec-10 22:30N 40°55' E 024°29'0 0.0
2017-Dec-10 22:00N 40°55' E 024°29'0 0.0
2017-Dec-10 21:30N 40°55' E 024°29'0 0.0
2017-Dec-10 21:00N 40°55' E 024°29'0 0.1
2017-Dec-10 20:30N 40°55' E 024°29'0 0.0
2017-Dec-10 20:00N 40°55' E 024°29'0 0.0
2017-Dec-10 19:30N 40°55' E 024°29'0 0.1
2017-Dec-10 19:00N 40°55' E 024°29'0 0.1
2017-Dec-10 18:30N 40°55' E 024°29'0 0.0
2017-Dec-10 18:00N 40°55' E 024°29'0 0.0
2017-Dec-10 17:30N 40°55' E 024°29'0 0.1
2017-Dec-10 17:00N 40°55' E 024°29'0 0.0
2017-Dec-10 16:30N 40°55' E 024°29'0 0.0
2017-Dec-10 16:00N 40°55' E 024°29'0 0.0
2017-Dec-10 15:30N 40°55' E 024°29'0 0.0
2017-Dec-10 15:00N 40°55' E 024°29'0 0.0
2017-Dec-10 14:27N 40°55' E 024°29'0 0.0
2017-Dec-10 13:57N 40°55' E 024°29'0 0.0
2017-Dec-10 13:30N 40°55' E 024°29'0 0.0
2017-Dec-10 12:57N 40°55' E 024°29'0 0.0
2017-Dec-10 12:30N 40°55' E 024°29'0 0.0
2017-Dec-10 12:00N 40°55' E 024°29'0 0.0
2017-Dec-10 11:30N 40°55' E 024°29'0 0.0
2017-Dec-10 11:00N 40°55' E 024°29'0 0.0
2017-Dec-10 10:30N 40°55' E 024°29'0 0.0
2017-Dec-10 10:00N 40°55' E 024°29'0 0.0
2017-Dec-10 09:30N 40°55' E 024°29'0 0.0
2017-Dec-10 09:00N 40°55' E 024°29'0 0.0
2017-Dec-10 08:30N 40°55' E 024°29'0 0.0
2017-Dec-10 08:00N 40°55' E 024°29'0 0.1
2017-Dec-10 07:30N 40°55' E 024°29'0 0.0
2017-Dec-10 06:58N 40°55' E 024°29'0 0.0
2017-Dec-10 06:28N 40°55' E 024°29'0 0.0
2017-Dec-10 05:58N 40°55' E 024°29'0 0.1
2017-Dec-10 05:28N 40°55' E 024°29'0 0.0
2017-Dec-10 04:55N 40°55' E 024°29'0 0.1
2017-Dec-10 04:30N 40°55' E 024°29'0 0.1
2017-Dec-10 03:58N 40°55' E 024°29'0 0.0
2017-Dec-10 03:28N 40°55' E 024°29'0 0.1
2017-Dec-10 02:55N 40°55' E 024°29'0 0.0
2017-Dec-10 02:28N 40°55' E 024°29'0 0.1
2017-Dec-10 01:58N 40°55' E 024°29'0 0.0
2017-Dec-10 01:25N 40°55' E 024°29'0 0.0
2017-Dec-10 00:58N 40°55' E 024°29'0 0.0
2017-Dec-10 00:28N 40°55' E 024°29'0 0.0
2017-Dec-09 23:55N 40°55' E 024°29'0 0.0
2017-Dec-09 23:28N 40°55' E 024°29'0 0.0
2017-Dec-09 22:58N 40°55' E 024°29'0 0.0
2017-Dec-09 22:28N 40°55' E 024°29'0 0.1
2017-Dec-09 21:58N 40°55' E 024°29'0 0.0
2017-Dec-09 21:25N 40°55' E 024°29'0 0.1
2017-Dec-09 20:58N 40°55' E 024°29'0 0.0
2017-Dec-09 20:25N 40°55' E 024°29'0 0.1
2017-Dec-09 19:58N 40°55' E 024°29'0 0.0
2017-Dec-09 19:25N 40°55' E 024°29'0 0.0
2017-Dec-09 18:55N 40°55' E 024°29'0 0.0
2017-Dec-09 18:25N 40°55' E 024°29'0 0.0
2017-Dec-09 17:55N 40°55' E 024°29'0 0.0
2017-Dec-09 17:25N 40°55' E 024°29'0 0.0
2017-Dec-09 16:58N 40°55' E 024°29'0 0.0
2017-Dec-09 16:25N 40°55' E 024°29'0 0.1
2017-Dec-09 15:58N 40°55' E 024°29'0 0.2
2017-Dec-09 15:28N 40°55' E 024°29'0 0.1
2017-Dec-09 14:58N 40°55' E 024°29'0 0.1
2017-Dec-09 14:28N 40°55' E 024°29'0 0.0
2017-Dec-09 13:58N 40°55' E 024°29'0 0.0
2017-Dec-09 13:28N 40°55' E 024°29'0 0.1
2017-Dec-09 12:58N 40°55' E 024°29'0 0.0
2017-Dec-09 12:28N 40°55' E 024°29'0 0.0
2017-Dec-09 11:58N 40°55' E 024°29'0 0.0
2017-Dec-09 11:28N 40°55' E 024°29'0 0.0
2017-Dec-09 10:58N 40°55' E 024°29'0 0.1
2017-Dec-09 10:28N 40°55' E 024°29'0 0.0
2017-Dec-09 09:58N 40°55' E 024°29'0 0.0
2017-Dec-09 09:25N 40°55' E 024°29'0 0.2
2017-Dec-09 08:58N 40°55' E 024°29'0 0.1
2017-Dec-09 08:28N 40°55' E 024°29'0 0.0
2017-Dec-09 07:58N 40°55' E 024°29'0 0.0
2017-Dec-09 07:28N 40°55' E 024°29'0 0.0
2017-Dec-09 06:55N 40°55' E 024°29'0 0.0
2017-Dec-09 06:28N 40°55' E 024°29'0 0.0
2017-Dec-09 05:58N 40°55' E 024°29'0 0.0
2017-Dec-09 05:28N 40°55' E 024°29'0 0.1
2017-Dec-09 04:55N 40°55' E 024°29'0 0.1
2017-Dec-09 04:28N 40°55' E 024°29'0 0.1
2017-Dec-09 03:58N 40°55' E 024°29'0 0.0
2017-Dec-09 03:28N 40°55' E 024°29'0 0.0
2017-Dec-09 02:58N 40°55' E 024°29'0 0.1
2017-Dec-09 02:28N 40°55' E 024°29'0 0.0
2017-Dec-09 01:58N 40°55' E 024°29'0 0.0
2017-Dec-09 01:28N 40°55' E 024°29'0 0.0
2017-Dec-09 00:58N 40°55' E 024°29'0 0.0
2017-Dec-09 00:28N 40°55' E 024°29'0 0.0
2017-Dec-08 23:55N 40°55' E 024°29'0 0.0
2017-Dec-08 23:25N 40°55' E 024°29'0 0.0
2017-Dec-08 22:58N 40°55' E 024°29'0 0.0
2017-Dec-08 22:28N 40°55' E 024°29'0 0.0
2017-Dec-08 21:55N 40°55' E 024°29'0 0.0
2017-Dec-08 21:25N 40°55' E 024°29'0 0.0
2017-Dec-08 20:55N 40°55' E 024°29'0 0.0
2017-Dec-08 20:25N 40°55' E 024°29'0 0.0
2017-Dec-08 19:55N 40°55' E 024°29'0 0.0
2017-Dec-08 19:28N 40°55' E 024°29'0 0.0
2017-Dec-08 18:58N 40°55' E 024°29'0 0.0
2017-Dec-08 18:25N 40°55' E 024°29'0 0.1
2017-Dec-08 17:55N 40°55' E 024°29'0 0.0
2017-Dec-08 17:25N 40°55' E 024°29'0 0.0
2017-Dec-08 16:55N 40°55' E 024°29'0 0.0
2017-Dec-08 16:28N 40°55' E 024°29'0 0.1
2017-Dec-08 15:55N 40°55' E 024°29'0 0.1
2017-Dec-08 15:28N 40°55' E 024°29'0 0.0
2017-Dec-08 14:58N 40°55' E 024°29'0 0.1
2017-Dec-08 14:28N 40°55' E 024°29'0 0.0
2017-Dec-08 13:52N 40°55' E 024°29'0 0.0
2017-Dec-08 13:22N 40°55' E 024°29'0 0.0
2017-Dec-08 12:58N 40°55' E 024°29'0 0.0
2017-Dec-08 12:28N 40°55' E 024°29'0 0.0
2017-Dec-08 11:55N 40°55' E 024°29'0 0.1
2017-Dec-08 11:28N 40°55' E 024°29'0 0.0
2017-Dec-08 10:58N 40°55' E 024°29'0 0.0
2017-Dec-08 10:28N 40°55' E 024°29'0 0.1
2017-Dec-08 09:58N 40°55' E 024°29'0 0.1
2017-Dec-08 09:28N 40°55' E 024°29'0 0.1
2017-Dec-08 08:58N 40°55' E 024°29'0 0.0
2017-Dec-08 08:28N 40°55' E 024°29'0 0.0
2017-Dec-08 07:58N 40°55' E 024°29'0 0.0
2017-Dec-08 07:28N 40°55' E 024°29'0 0.1
2017-Dec-08 06:58N 40°55' E 024°29'0 0.0
2017-Dec-08 06:28N 40°55' E 024°29'0 0.0
2017-Dec-08 05:58N 40°55' E 024°29'0 0.0
2017-Dec-08 05:28N 40°55' E 024°29'0 0.0
2017-Dec-08 04:58N 40°55' E 024°29'0 0.0
2017-Dec-08 04:28N 40°55' E 024°29'0 0.0
2017-Dec-08 03:58N 40°55' E 024°29'0 0.0
2017-Dec-08 03:28N 40°55' E 024°29'0 0.0
2017-Dec-08 02:58N 40°55' E 024°29'0 0.1
2017-Dec-08 02:28N 40°55' E 024°29'0 0.0
2017-Dec-08 01:58N 40°55' E 024°29'0 0.0
2017-Dec-08 01:28N 40°55' E 024°29'0 0.0
2017-Dec-08 00:58N 40°55' E 024°29'0 0.1
2017-Dec-08 00:28N 40°55' E 024°29'0 0.0
2017-Dec-07 23:58N 40°55' E 024°29'0 0.0
2017-Dec-07 23:28N 40°55' E 024°29'0 0.0
2017-Dec-07 22:58N 40°55' E 024°29'0 0.0
2017-Dec-07 22:25N 40°55' E 024°29'0 0.0
2017-Dec-07 21:58N 40°55' E 024°29'0 0.0
2017-Dec-07 21:28N 40°55' E 024°29'0 0.0
2017-Dec-07 20:58N 40°55' E 024°29'0 0.0
2017-Dec-07 20:28N 40°55' E 024°29'0 0.0
2017-Dec-07 19:58N 40°55' E 024°29'0 0.0
2017-Dec-07 19:28N 40°55' E 024°29'0 0.0
2017-Dec-07 18:58N 40°55' E 024°29'0 0.0
2017-Dec-07 18:28N 40°55' E 024°29'0 0.0
2017-Dec-07 17:55N 40°55' E 024°29'0 0.0
2017-Dec-07 17:25N 40°55' E 024°29'0 0.0
2017-Dec-07 16:58N 40°55' E 024°29'0 0.0
2017-Dec-07 16:28N 40°55' E 024°29'0 0.0
2017-Dec-07 15:55N 40°55' E 024°29'0 0.1
2017-Dec-07 15:28N 40°55' E 024°29'0 0.0
2017-Dec-07 14:58N 40°55' E 024°29'0 0.0
2017-Dec-07 14:28N 40°55' E 024°29'0 0.0
2017-Dec-07 13:58N 40°55' E 024°29'0 0.0
2017-Dec-07 13:25N 40°55' E 024°29'0 0.0
2017-Dec-07 12:58N 40°55' E 024°29'0 0.0
2017-Dec-07 12:28N 40°55' E 024°29'0 0.0
2017-Dec-07 11:58N 40°55' E 024°29'0 0.0
2017-Dec-07 11:28N 40°55' E 024°29'0 0.0
2017-Dec-07 10:58N 40°55' E 024°29'0 0.0
2017-Dec-07 10:25N 40°55' E 024°29'0 0.0
2017-Dec-07 09:58N 40°55' E 024°29'0 0.0
2017-Dec-07 09:28N 40°55' E 024°29'0 0.0
2017-Dec-07 08:58N 40°55' E 024°29'0 0.0
2017-Dec-07 08:25N 40°55' E 024°29'0 0.0
2017-Dec-07 07:58N 40°55' E 024°29'0 0.0
2017-Dec-07 07:25N 40°55' E 024°29'0 0.1
2017-Dec-07 06:55N 40°55' E 024°29'0 0.0
2017-Dec-07 06:25N 40°55' E 024°29'0 0.0
2017-Dec-07 05:55N 40°55' E 024°29'0 0.0
2017-Dec-07 05:25N 40°55' E 024°29'0 0.0
2017-Dec-07 04:55N 40°55' E 024°29'0 0.0
2017-Dec-07 04:19N 40°55' E 024°29'0 0.0
2017-Dec-07 03:55N 40°55' E 024°29'0 0.0
2017-Dec-07 03:25N 40°55' E 024°29'0 0.0
2017-Dec-07 02:55N 40°55' E 024°29'0 0.0
2017-Dec-07 02:25N 40°55' E 024°29'0 0.0
2017-Dec-07 01:55N 40°55' E 024°29'0 0.0
2017-Dec-07 01:25N 40°55' E 024°29'0 0.0
2017-Dec-07 00:55N 40°55' E 024°29'0 0.0
2017-Dec-07 00:25N 40°55' E 024°29'0 0.1
2017-Dec-06 23:55N 40°55' E 024°29'0 0.0
2017-Dec-06 23:25N 40°55' E 024°29'0 0.0
2017-Dec-06 22:55N 40°55' E 024°29'0 0.1
2017-Dec-06 22:28N 40°55' E 024°29'0 0.0
2017-Dec-06 21:55N 40°55' E 024°29'0 0.0
2017-Dec-06 21:13N 40°55' E 024°29'0 0.0
2017-Dec-06 20:55N 40°55' E 024°29'  

Dump ship's entire track history